PWSweather.com
Personal Weather Stations
Station Observations
WAREHAM1
West Wareham, MA 02576

West Wareham, MA 02576

Lat: 41.7961059, Lon: -70.775612

Elevation: 88

Station Type: Davis Vantage Vue

http://www.gateway2capecod.com

High Low Average
Temperature 61.7°F16.5°C 37.8°F3.2°C 51.4°F10.8°C
Dew Point 58.5°F14.7°C 27.7°F-2.4°C 45.2°F7.3°C
Winds 6.0 mph 9.7 kmh Calm Calm 3.0 mph SW4.8 kmh SW
Wind Gusts 20.0 mph32.2 kmh 2.9 mph4.7 kmh 11.0 mph17.7 kmh
Humidity 96% 58% 80%
Pressure 29.68 in1005.1 mb 29.19 in988.5 mb -
Precipitation 0.27 in6.9 mm - -
Hour Temp Dew Point Humidity Winds Wind Gusts Pressure Precip Precip Rate Daily Precip Total
12:02 AM 55.2°F12.9°C 53.8°F12.1°C 95% 2.0 mph SW3.2 kmh SW 5.0 mph8.0 kmh 29.52 in999.7 mb 0.02 in0.5 mm 0.60 in15.2 mm 0.02 in0.5 mm
12:12 AM 55.4°F13.0°C 54.0°F12.2°C 95% 2.0 mph SSW3.2 kmh SSW 5.0 mph8.0 kmh 29.52 in999.7 mb 0.01 in0.3 mm 0.00 in0.0 mm 0.02 in0.5 mm
12:22 AM 55.4°F13.0°C 54.0°F12.2°C 95% 0.9 mph SSW1.4 kmh SSW 4.9 mph7.9 kmh 29.50 in999.0 mb 0.01 in0.3 mm 0.00 in0.0 mm 0.02 in0.5 mm
12:32 AM 55.6°F13.1°C 54.1°F12.3°C 95% 0.9 mph SSW1.4 kmh SSW 4.9 mph7.9 kmh 29.49 in998.6 mb 0.01 in0.3 mm 0.00 in0.0 mm 0.02 in0.5 mm
12:42 AM 55.6°F13.1°C 54.1°F12.3°C 95% 0.9 mph SSW1.4 kmh SSW 5.0 mph8.0 kmh 29.49 in998.6 mb 0.01 in0.3 mm 0.00 in0.0 mm 0.02 in0.5 mm
12:52 AM 55.8°F13.2°C 54.3°F12.4°C 95% 2.0 mph SSW3.2 kmh SSW 7.0 mph11.3 kmh 29.48 in998.3 mb 0.00 in0.0 mm 0.00 in0.0 mm 0.02 in0.5 mm
01:02 AM 56.1°F13.4°C 54.7°F12.6°C 95% 2.0 mph SSW3.2 kmh SSW 4.9 mph7.9 kmh 29.48 in998.3 mb 0.00 in0.0 mm 0.00 in0.0 mm 0.02 in0.5 mm
01:12 AM 56.5°F13.6°C 54.9°F12.7°C 94% 2.0 mph SW3.2 kmh SW 7.0 mph11.3 kmh 29.48 in998.3 mb 0.00 in0.0 mm 0.00 in0.0 mm 0.02 in0.5 mm
01:22 AM 57.0°F13.9°C 55.2°F12.9°C 94% 2.9 mph S4.7 kmh S 8.1 mph13.0 kmh 29.47 in998.0 mb 0.00 in0.0 mm 0.00 in0.0 mm 0.02 in0.5 mm
01:32 AM 57.9°F14.4°C 55.6°F13.1°C 92% 4.0 mph S6.4 kmh S 10.1 mph16.3 kmh 29.46 in997.6 mb 0.00 in0.0 mm 0.00 in0.0 mm 0.02 in0.5 mm
01:42 AM 58.5°F14.7°C 55.8°F13.2°C 91% 4.0 mph S6.4 kmh S 10.1 mph16.3 kmh 29.46 in997.6 mb 0.00 in0.0 mm 0.00 in0.0 mm 0.02 in0.5 mm
01:52 AM 58.8°F14.9°C 55.9°F13.3°C 90% 4.0 mph SW6.4 kmh SW 13.0 mph20.9 kmh 29.45 in997.3 mb 0.00 in0.0 mm 0.00 in0.0 mm 0.02 in0.5 mm
02:02 AM 59.2°F15.1°C 55.9°F13.3°C 89% 4.0 mph WSW6.4 kmh WSW 12.0 mph19.3 kmh 29.44 in997.0 mb 0.00 in0.0 mm 0.00 in0.0 mm 0.02 in0.5 mm
02:12 AM 59.2°F15.1°C 55.9°F13.3°C 89% 4.0 mph SSW6.4 kmh SSW 11.0 mph17.7 kmh 29.43 in996.6 mb 0.00 in0.0 mm 0.00 in0.0 mm 0.02 in0.5 mm
02:22 AM 59.5°F15.3°C 56.3°F13.5°C 89% 4.0 mph S6.4 kmh S 11.0 mph17.7 kmh 29.42 in996.3 mb 0.00 in0.0 mm 0.00 in0.0 mm 0.02 in0.5 mm
02:32 AM 59.7°F15.4°C 56.5°F13.6°C 89% 4.0 mph SW6.4 kmh SW 13.0 mph20.9 kmh 29.41 in995.9 mb 0.00 in0.0 mm 0.00 in0.0 mm 0.02 in0.5 mm
02:42 AM 60.3°F15.7°C 57.0°F13.9°C 89% 4.9 mph SW7.9 kmh SW 11.0 mph17.7 kmh 29.41 in995.9 mb 0.00 in0.0 mm 0.00 in0.0 mm 0.02 in0.5 mm
02:52 AM 60.4°F15.8°C 56.8°F13.8°C 88% 4.9 mph WSW7.9 kmh WSW 12.1 mph19.5 kmh 29.40 in995.6 mb 0.00 in0.0 mm 0.00 in0.0 mm 0.02 in0.5 mm
03:02 AM 60.6°F15.9°C 57.4°F14.1°C 89% 4.9 mph SW7.9 kmh SW 11.0 mph17.7 kmh 29.39 in995.3 mb 0.00 in0.0 mm 0.00 in0.0 mm 0.02 in0.5 mm
03:12 AM 60.8°F16.0°C 57.6°F14.2°C 89% 4.0 mph S6.4 kmh S 11.0 mph17.7 kmh 29.39 in995.3 mb 0.00 in0.0 mm 0.00 in0.0 mm 0.02 in0.5 mm
03:22 AM 61.0°F16.1°C 57.7°F14.3°C 89% 4.9 mph SSW7.9 kmh SSW 15.0 mph24.1 kmh 29.38 in994.9 mb 0.00 in0.0 mm 0.00 in0.0 mm 0.02 in0.5 mm
03:32 AM 61.0°F16.1°C 57.7°F14.3°C 89% 4.0 mph SW6.4 kmh SW 11.0 mph17.7 kmh 29.38 in994.9 mb 0.00 in0.0 mm 0.00 in0.0 mm 0.02 in0.5 mm
03:42 AM 61.0°F16.1°C 57.7°F14.3°C 89% 4.9 mph SW7.9 kmh SW 11.0 mph17.7 kmh 29.37 in994.6 mb 0.00 in0.0 mm 0.00 in0.0 mm 0.02 in0.5 mm
03:52 AM 61.0°F16.1°C 57.7°F14.3°C 89% 4.9 mph SW7.9 kmh SW 13.0 mph20.9 kmh 29.37 in994.6 mb 0.00 in0.0 mm 0.00 in0.0 mm 0.02 in0.5 mm
04:02 AM 61.2°F16.2°C 57.9°F14.4°C 89% 6.0 mph SW9.7 kmh SW 14.0 mph22.5 kmh 29.36 in994.2 mb 0.00 in0.0 mm 0.00 in0.0 mm 0.02 in0.5 mm
04:12 AM 61.2°F16.2°C 57.9°F14.4°C 89% 4.9 mph SW7.9 kmh SW 13.0 mph20.9 kmh 29.36 in994.2 mb 0.00 in0.0 mm 0.00 in0.0 mm 0.02 in0.5 mm
04:22 AM 61.2°F16.2°C 57.9°F14.4°C 89% 4.9 mph SSW7.9 kmh SSW 11.0 mph17.7 kmh 29.35 in993.9 mb 0.00 in0.0 mm 0.00 in0.0 mm 0.02 in0.5 mm
04:32 AM 61.3°F16.3°C 58.1°F14.5°C 89% 4.9 mph SW7.9 kmh SW 14.1 mph22.7 kmh 29.35 in993.9 mb 0.00 in0.0 mm 0.00 in0.0 mm 0.02 in0.5 mm
04:42 AM 61.5°F16.4°C 58.3°F14.6°C 89% 4.9 mph SE7.9 kmh SE 15.0 mph24.1 kmh 29.34 in993.6 mb 0.00 in0.0 mm 0.00 in0.0 mm 0.02 in0.5 mm
04:52 AM 61.7°F16.5°C 58.5°F14.7°C 89% 4.9 mph SW7.9 kmh SW 15.0 mph24.1 kmh 29.34 in993.6 mb 0.00 in0.0 mm 0.00 in0.0 mm 0.02 in0.5 mm
05:02 AM 61.5°F16.4°C 58.3°F14.6°C 89% 4.9 mph WSW7.9 kmh WSW 14.1 mph22.7 kmh 29.33 in993.2 mb 0.00 in0.0 mm 0.00 in0.0 mm 0.02 in0.5 mm
05:12 AM 61.3°F16.3°C 58.5°F14.7°C 90% 6.0 mph SSW9.7 kmh SSW 15.0 mph24.1 kmh 29.33 in993.2 mb 0.00 in0.0 mm 0.00 in0.0 mm 0.02 in0.5 mm
05:22 AM 60.8°F16.0°C 58.5°F14.7°C 92% 6.0 mph S9.7 kmh S 12.1 mph19.5 kmh 29.33 in993.2 mb 0.00 in0.0 mm 0.00 in0.0 mm 0.02 in0.5 mm
05:32 AM 60.3°F15.7°C 58.3°F14.6°C 93% 6.0 mph S9.7 kmh S 12.1 mph19.5 kmh 29.32 in992.9 mb 0.01 in0.3 mm 0.06 in1.5 mm 0.01 in0.3 mm
05:42 AM 59.9°F15.5°C 58.1°F14.5°C 94% 6.0 mph SW9.7 kmh SW 15.0 mph24.1 kmh 29.32 in992.9 mb 0.03 in0.8 mm 0.12 in3.0 mm 0.03 in0.8 mm
05:52 AM 59.5°F15.3°C 57.7°F14.3°C 94% 4.9 mph S7.9 kmh S 20.0 mph32.2 kmh 29.31 in992.6 mb 0.04 in1.0 mm 0.06 in1.5 mm 0.04 in1.0 mm
06:02 AM 59.4°F15.2°C 57.9°F14.4°C 95% 4.9 mph SW7.9 kmh SW 12.1 mph19.5 kmh 29.31 in992.6 mb 0.04 in1.0 mm 0.00 in0.0 mm 0.04 in1.0 mm
06:12 AM 59.2°F15.1°C 57.7°F14.3°C 95% 4.9 mph SW7.9 kmh SW 13.0 mph20.9 kmh 29.31 in992.6 mb 0.04 in1.0 mm 0.00 in0.0 mm 0.04 in1.0 mm
06:22 AM 59.2°F15.1°C 57.7°F14.3°C 95% 4.9 mph SSW7.9 kmh SSW 12.1 mph19.5 kmh 29.30 in992.2 mb 0.05 in1.3 mm 0.06 in1.5 mm 0.05 in1.3 mm
06:32 AM 59.0°F15.0°C 57.6°F14.2°C 95% 4.9 mph SSW7.9 kmh SSW 13.0 mph20.9 kmh 29.30 in992.2 mb 0.05 in1.3 mm 0.00 in0.0 mm 0.06 in1.5 mm
06:42 AM 58.8°F14.9°C 57.4°F14.1°C 95% 6.0 mph SSW9.7 kmh SSW 13.0 mph20.9 kmh 29.29 in991.9 mb 0.05 in1.3 mm 0.00 in0.0 mm 0.08 in2.0 mm
06:52 AM 58.8°F14.9°C 57.7°F14.3°C 96% 6.0 mph SW9.7 kmh SW 13.0 mph20.9 kmh 29.29 in991.9 mb 0.07 in1.8 mm 0.12 in3.0 mm 0.11 in2.8 mm
07:02 AM 59.0°F15.0°C 57.9°F14.4°C 96% 6.0 mph SW9.7 kmh SW 15.0 mph24.1 kmh 29.28 in991.5 mb 0.07 in1.8 mm 0.00 in0.0 mm 0.11 in2.8 mm
07:12 AM 59.0°F15.0°C 57.9°F14.4°C 96% 6.0 mph SSW9.7 kmh SSW 13.0 mph20.9 kmh 29.28 in991.5 mb 0.07 in1.8 mm 0.00 in0.0 mm 0.11 in2.8 mm
07:22 AM 59.0°F15.0°C 57.9°F14.4°C 96% 4.9 mph E7.9 kmh E 11.0 mph17.7 kmh 29.28 in991.5 mb 0.06 in1.5 mm 0.00 in0.0 mm 0.11 in2.8 mm
07:32 AM 59.0°F15.0°C 57.9°F14.4°C 96% 6.0 mph SW9.7 kmh SW 17.0 mph27.4 kmh 29.27 in991.2 mb 0.06 in1.5 mm 0.00 in0.0 mm 0.12 in3.0 mm
07:42 AM 58.8°F14.9°C 57.7°F14.3°C 96% 6.0 mph SW9.7 kmh SW 16.1 mph25.9 kmh 29.27 in991.2 mb 0.04 in1.0 mm 0.00 in0.0 mm 0.12 in3.0 mm
07:52 AM 58.8°F14.9°C 57.7°F14.3°C 96% 6.0 mph SW9.7 kmh SW 13.0 mph20.9 kmh 29.26 in990.9 mb 0.01 in0.3 mm 0.00 in0.0 mm 0.12 in3.0 mm
08:02 AM 58.8°F14.9°C 57.7°F14.3°C 96% 4.9 mph SW7.9 kmh SW 13.0 mph20.9 kmh 29.26 in990.9 mb 0.02 in0.5 mm 0.01 in0.3 mm 0.13 in3.3 mm
08:12 AM 58.8°F14.9°C 57.7°F14.3°C 96% 6.0 mph SSW9.7 kmh SSW 15.0 mph24.1 kmh 29.26 in990.9 mb 0.02 in0.5 mm 0.00 in0.0 mm 0.13 in3.3 mm
08:22 AM 59.0°F15.0°C 57.9°F14.4°C 96% 6.0 mph SSW9.7 kmh SSW 16.1 mph25.9 kmh 29.26 in990.9 mb 0.02 in0.5 mm 0.00 in0.0 mm 0.13 in3.3 mm
08:32 AM 59.0°F15.0°C 57.9°F14.4°C 96% 6.0 mph SW9.7 kmh SW 14.0 mph22.5 kmh 29.25 in990.5 mb 0.02 in0.5 mm 0.00 in0.0 mm 0.14 in3.6 mm
08:42 AM 58.8°F14.9°C 57.7°F14.3°C 96% 4.9 mph S7.9 kmh S 13.0 mph20.9 kmh 29.25 in990.5 mb 0.02 in0.5 mm 0.00 in0.0 mm 0.14 in3.6 mm
08:52 AM 58.8°F14.9°C 57.7°F14.3°C 96% 4.9 mph SW7.9 kmh SW 12.1 mph19.5 kmh 29.24 in990.2 mb 0.02 in0.5 mm 0.00 in0.0 mm 0.14 in3.6 mm
09:02 AM 58.8°F14.9°C 57.7°F14.3°C 96% 4.9 mph SW7.9 kmh SW 15.0 mph24.1 kmh 29.23 in989.8 mb 0.01 in0.3 mm 0.00 in0.0 mm 0.14 in3.6 mm
09:12 AM 58.8°F14.9°C 57.7°F14.3°C 96% 4.9 mph SW7.9 kmh SW 13.0 mph20.9 kmh 29.23 in989.8 mb 0.02 in0.5 mm 0.06 in1.5 mm 0.15 in3.8 mm
09:22 AM 58.6°F14.8°C 57.6°F14.2°C 96% 4.0 mph SW6.4 kmh SW 12.1 mph19.5 kmh 29.23 in989.8 mb 0.04 in1.0 mm 0.12 in3.0 mm 0.17 in4.3 mm
09:32 AM 58.6°F14.8°C 57.6°F14.2°C 96% 4.9 mph SW7.9 kmh SW 12.1 mph19.5 kmh 29.23 in989.8 mb 0.06 in1.5 mm 0.12 in3.0 mm 0.20 in5.1 mm
09:42 AM 58.5°F14.7°C 57.4°F14.1°C 96% 4.9 mph SSW7.9 kmh SSW 12.0 mph19.3 kmh 29.22 in989.5 mb 0.08 in2.0 mm 0.12 in3.0 mm 0.22 in5.6 mm
09:52 AM 58.5°F14.7°C 57.4°F14.1°C 96% 4.9 mph S7.9 kmh S 13.0 mph20.9 kmh 29.22 in989.5 mb 0.09 in2.3 mm 0.06 in1.5 mm 0.23 in5.8 mm
10:02 AM 58.3°F14.6°C 57.2°F14.0°C 96% 6.0 mph SSE9.7 kmh SSE 13.0 mph20.9 kmh 29.21 in989.2 mb 0.11 in2.8 mm 0.02 in0.5 mm 0.25 in6.4 mm
10:12 AM 58.3°F14.6°C 57.2°F14.0°C 96% 4.9 mph SSW7.9 kmh SSW 11.0 mph17.7 kmh 29.21 in989.2 mb 0.10 in2.5 mm 0.00 in0.0 mm 0.25 in6.4 mm
10:22 AM 58.3°F14.6°C 57.2°F14.0°C 96% 6.0 mph S9.7 kmh S 15.0 mph24.1 kmh 29.21 in989.2 mb 0.09 in2.3 mm 0.00 in0.0 mm 0.26 in6.6 mm
10:32 AM 58.3°F14.6°C 57.2°F14.0°C 96% 4.9 mph SW7.9 kmh SW 12.1 mph19.5 kmh 29.21 in989.2 mb 0.06 in1.5 mm 0.00 in0.0 mm 0.26 in6.6 mm
10:42 AM 58.3°F14.6°C 57.2°F14.0°C 96% 4.0 mph SW6.4 kmh SW 13.0 mph20.9 kmh 29.20 in988.8 mb 0.04 in1.0 mm 0.00 in0.0 mm 0.26 in6.6 mm
10:52 AM 58.3°F14.6°C 57.2°F14.0°C 96% 4.0 mph SSW6.4 kmh SSW 10.1 mph16.3 kmh 29.20 in988.8 mb 0.04 in1.0 mm 0.00 in0.0 mm 0.27 in6.9 mm
11:02 AM 57.9°F14.4°C 56.8°F13.8°C 96% 4.0 mph SSW6.4 kmh SSW 8.9 mph14.3 kmh 29.19 in988.5 mb 0.02 in0.5 mm 0.00 in0.0 mm 0.27 in6.9 mm
11:12 AM 58.1°F14.5°C 57.0°F13.9°C 96% 2.0 mph SW3.2 kmh SW 6.9 mph11.1 kmh 29.19 in988.5 mb 0.02 in0.5 mm 0.00 in0.0 mm 0.27 in6.9 mm
11:22 AM 57.7°F14.3°C 56.3°F13.5°C 95% 2.9 mph SSW4.7 kmh SSW 6.9 mph11.1 kmh 29.20 in988.8 mb 0.01 in0.3 mm 0.00 in0.0 mm 0.27 in6.9 mm
11:32 AM 57.9°F14.4°C 56.5°F13.6°C 95% 2.9 mph SSW4.7 kmh SSW 10.0 mph16.1 kmh 29.20 in988.8 mb 0.01 in0.3 mm 0.00 in0.0 mm 0.27 in6.9 mm
11:42 AM 58.3°F14.6°C 56.5°F13.6°C 94% 2.9 mph SW4.7 kmh SW 8.1 mph13.0 kmh 29.20 in988.8 mb 0.01 in0.3 mm 0.00 in0.0 mm 0.27 in6.9 mm
11:52 AM 58.5°F14.7°C 55.8°F13.2°C 91% 2.9 mph S4.7 kmh S 9.0 mph14.5 kmh 29.19 in988.5 mb 0.00 in0.0 mm 0.00 in0.0 mm 0.27 in6.9 mm
12:02 PM 59.0°F15.0°C 55.4°F13.0°C 88% 2.9 mph SW4.7 kmh SW 8.1 mph13.0 kmh 29.19 in988.5 mb 0.00 in0.0 mm 0.00 in0.0 mm 0.27 in6.9 mm
12:12 PM 59.4°F15.2°C 54.9°F12.7°C 85% 2.9 mph WSW4.7 kmh WSW 13.0 mph20.9 kmh 29.19 in988.5 mb 0.00 in0.0 mm 0.00 in0.0 mm 0.27 in6.9 mm
12:22 PM 59.4°F15.2°C 54.1°F12.3°C 83% 2.9 mph S4.7 kmh S 13.0 mph20.9 kmh 29.19 in988.5 mb 0.00 in0.0 mm 0.00 in0.0 mm 0.27 in6.9 mm
12:32 PM 56.1°F13.4°C 48.7°F9.3°C 76% 4.0 mph SW6.4 kmh SW 12.1 mph19.5 kmh 29.23 in989.8 mb 0.00 in0.0 mm 0.00 in0.0 mm 0.27 in6.9 mm
12:42 PM 52.3°F11.3°C 45.7°F7.6°C 78% 2.9 mph NW4.7 kmh NW 11.0 mph17.7 kmh 29.23 in989.8 mb 0.00 in0.0 mm 0.00 in0.0 mm 0.27 in6.9 mm
12:52 PM 51.6°F10.9°C 43.0°F6.1°C 72% 4.0 mph SW6.4 kmh SW 17.0 mph27.4 kmh 29.24 in990.2 mb 0.00 in0.0 mm 0.00 in0.0 mm 0.27 in6.9 mm
01:02 PM 51.1°F10.6°C 41.2°F5.1°C 69% 4.9 mph WNW7.9 kmh WNW 19.0 mph30.6 kmh 29.25 in990.5 mb 0.00 in0.0 mm 0.00 in0.0 mm 0.27 in6.9 mm
01:12 PM 50.5°F10.3°C 40.8°F4.9°C 69% 4.0 mph W6.4 kmh W 17.0 mph27.4 kmh 29.26 in990.9 mb 0.00 in0.0 mm 0.00 in0.0 mm 0.27 in6.9 mm
01:22 PM 50.5°F10.3°C 40.5°F4.7°C 68% 4.0 mph WSW6.4 kmh WSW 17.0 mph27.4 kmh 29.27 in991.2 mb 0.00 in0.0 mm 0.00 in0.0 mm 0.27 in6.9 mm
01:32 PM 50.5°F10.3°C 40.5°F4.7°C 68% 4.9 mph NW7.9 kmh NW 19.0 mph30.6 kmh 29.28 in991.5 mb 0.00 in0.0 mm 0.00 in0.0 mm 0.27 in6.9 mm
01:42 PM 50.4°F10.2°C 40.6°F4.8°C 69% 4.0 mph E6.4 kmh E 17.0 mph27.4 kmh 29.28 in991.5 mb 0.00 in0.0 mm 0.00 in0.0 mm 0.27 in6.9 mm
01:52 PM 50.4°F10.2°C 39.7°F4.3°C 67% 2.9 mph SW4.7 kmh SW 11.0 mph17.7 kmh 29.28 in991.5 mb 0.00 in0.0 mm 0.00 in0.0 mm 0.27 in6.9 mm
02:02 PM 49.8°F9.9°C 39.7°F4.3°C 68% 2.9 mph WSW4.7 kmh WSW 14.1 mph22.7 kmh 29.30 in992.2 mb 0.00 in0.0 mm 0.00 in0.0 mm 0.27 in6.9 mm
02:12 PM 49.6°F9.8°C 37.9°F3.3°C 64% 4.9 mph S7.9 kmh S 17.0 mph27.4 kmh 29.31 in992.6 mb 0.00 in0.0 mm 0.00 in0.0 mm 0.27 in6.9 mm
02:22 PM 49.3°F9.6°C 36.3°F2.4°C 61% 4.9 mph NW7.9 kmh NW 16.1 mph25.9 kmh 29.31 in992.6 mb 0.00 in0.0 mm 0.00 in0.0 mm 0.27 in6.9 mm
02:32 PM 48.7°F9.3°C 35.4°F1.9°C 60% 6.0 mph N9.7 kmh N 17.0 mph27.4 kmh 29.33 in993.2 mb 0.00 in0.0 mm 0.00 in0.0 mm 0.27 in6.9 mm
02:42 PM 48.6°F9.2°C 35.2°F1.8°C 60% 4.9 mph WSW7.9 kmh WSW 16.1 mph25.9 kmh 29.33 in993.2 mb 0.00 in0.0 mm 0.00 in0.0 mm 0.27 in6.9 mm
02:52 PM 48.4°F9.1°C 35.6°F2.0°C 61% 4.0 mph WNW6.4 kmh WNW 13.0 mph20.9 kmh 29.34 in993.6 mb 0.00 in0.0 mm 0.00 in0.0 mm 0.27 in6.9 mm
03:02 PM 48.0°F8.9°C 34.9°F1.6°C 60% 4.0 mph WNW6.4 kmh WNW 11.0 mph17.7 kmh 29.36 in994.2 mb 0.00 in0.0 mm 0.00 in0.0 mm 0.27 in6.9 mm
03:12 PM 47.7°F8.7°C 34.5°F1.4°C 60% 4.9 mph W7.9 kmh W 14.1 mph22.7 kmh 29.37 in994.6 mb 0.00 in0.0 mm 0.00 in0.0 mm 0.27 in6.9 mm
03:22 PM 47.5°F8.6°C 33.4°F0.8°C 58% 4.9 mph SW7.9 kmh SW 20.0 mph32.2 kmh 29.39 in995.3 mb 0.00 in0.0 mm 0.00 in0.0 mm 0.27 in6.9 mm
03:32 PM 47.1°F8.4°C 34.0°F1.1°C 60% 2.9 mph ENE4.7 kmh ENE 15.0 mph24.1 kmh 29.39 in995.3 mb 0.00 in0.0 mm 0.00 in0.0 mm 0.27 in6.9 mm
03:42 PM 46.8°F8.2°C 33.6°F0.9°C 60% 2.9 mph WSW4.7 kmh WSW 15.0 mph24.1 kmh 29.41 in995.9 mb 0.00 in0.0 mm 0.00 in0.0 mm 0.27 in6.9 mm
03:52 PM 46.0°F7.8°C 32.9°F0.5°C 60% 4.0 mph SSW6.4 kmh SSW 13.0 mph20.9 kmh 29.42 in996.3 mb 0.00 in0.0 mm 0.00 in0.0 mm 0.27 in6.9 mm
04:02 PM 45.7°F7.6°C 33.1°F0.6°C 61% 2.9 mph W4.7 kmh W 13.0 mph20.9 kmh 29.42 in996.3 mb 0.00 in0.0 mm 0.00 in0.0 mm 0.27 in6.9 mm
04:12 PM 45.1°F7.3°C 32.5°F0.3°C 61% 2.9 mph SW4.7 kmh SW 12.1 mph19.5 kmh 29.43 in996.6 mb 0.00 in0.0 mm 0.00 in0.0 mm 0.27 in6.9 mm
04:23 PM 45.0°F7.2°C 32.7°F0.4°C 62% 2.0 mph WSW3.2 kmh WSW 9.0 mph14.5 kmh 29.44 in997.0 mb 0.00 in0.0 mm 0.00 in0.0 mm 0.27 in6.9 mm
04:33 PM 44.8°F7.1°C 32.5°F0.3°C 62% 2.9 mph WNW4.7 kmh WNW 10.1 mph16.3 kmh 29.45 in997.3 mb 0.00 in0.0 mm 0.00 in0.0 mm 0.27 in6.9 mm
04:43 PM 44.1°F6.7°C 32.4°F0.2°C 63% 2.0 mph E3.2 kmh E 12.1 mph19.5 kmh 29.46 in997.6 mb 0.00 in0.0 mm 0.00 in0.0 mm 0.27 in6.9 mm
04:53 PM 43.5°F6.4°C 31.8°F-0.1°C 63% 2.0 mph WNW3.2 kmh WNW 6.9 mph11.1 kmh 29.47 in998.0 mb 0.00 in0.0 mm 0.00 in0.0 mm 0.27 in6.9 mm
05:03 PM 43.3°F6.3°C 32.0°F0.0°C 64% 2.0 mph W3.2 kmh W 8.9 mph14.3 kmh 29.48 in998.3 mb 0.00 in0.0 mm 0.00 in0.0 mm 0.27 in6.9 mm
05:13 PM 42.6°F5.9°C 32.0°F0.0°C 66% 0.9 mph WNW1.4 kmh WNW 4.9 mph7.9 kmh 29.49 in998.6 mb 0.00 in0.0 mm 0.00 in0.0 mm 0.27 in6.9 mm
05:23 PM 42.4°F5.8°C 31.5°F-0.3°C 65% 4.0 mph WSW6.4 kmh WSW 16.0 mph25.7 kmh 29.49 in998.6 mb 0.00 in0.0 mm 0.00 in0.0 mm 0.27 in6.9 mm
05:33 PM 42.1°F5.6°C 31.1°F-0.5°C 65% 4.0 mph WNW6.4 kmh WNW 11.0 mph17.7 kmh 29.51 in999.3 mb 0.00 in0.0 mm 0.00 in0.0 mm 0.27 in6.9 mm
05:43 PM 41.9°F5.5°C 31.5°F-0.3°C 66% 2.9 mph WSW4.7 kmh WSW 11.0 mph17.7 kmh 29.52 in999.7 mb 0.00 in0.0 mm 0.00 in0.0 mm 0.27 in6.9 mm
05:53 PM 41.5°F5.3°C 31.5°F-0.3°C 67% 0.9 mph W1.4 kmh W 4.0 mph6.4 kmh 29.52 in999.7 mb 0.00 in0.0 mm 0.00 in0.0 mm 0.27 in6.9 mm
06:03 PM 41.2°F5.1°C 31.1°F-0.5°C 67% 2.0 mph WSW3.2 kmh WSW 8.1 mph13.0 kmh 29.54 in1000.3 mb 0.00 in0.0 mm 0.00 in0.0 mm 0.27 in6.9 mm
06:13 PM 41.2°F5.1°C 30.7°F-0.7°C 66% 4.0 mph NE6.4 kmh NE 11.0 mph17.7 kmh 29.55 in1000.7 mb 0.00 in0.0 mm 0.00 in0.0 mm 0.27 in6.9 mm
06:23 PM 41.2°F5.1°C 30.7°F-0.7°C 66% 2.0 mph WNW3.2 kmh WNW 8.1 mph13.0 kmh 29.55 in1000.7 mb 0.00 in0.0 mm 0.00 in0.0 mm 0.27 in6.9 mm
06:33 PM 40.8°F4.9°C 30.7°F-0.7°C 67% 2.0 mph W3.2 kmh W 8.0 mph12.9 kmh 29.56 in1001.0 mb 0.00 in0.0 mm 0.00 in0.0 mm 0.27 in6.9 mm
06:43 PM 40.6°F4.8°C 30.6°F-0.8°C 67% 2.9 mph S4.7 kmh S 10.1 mph16.3 kmh 29.56 in1001.0 mb 0.00 in0.0 mm 0.00 in0.0 mm 0.27 in6.9 mm
06:53 PM 40.5°F4.7°C 30.4°F-0.9°C 67% 2.9 mph SW4.7 kmh SW 10.1 mph16.3 kmh 29.57 in1001.4 mb 0.00 in0.0 mm 0.00 in0.0 mm 0.27 in6.9 mm
07:03 PM 40.5°F4.7°C 30.7°F-0.7°C 68% 2.0 mph WNW3.2 kmh WNW 10.1 mph16.3 kmh 29.58 in1001.7 mb 0.00 in0.0 mm 0.00 in0.0 mm 0.27 in6.9 mm
07:13 PM 40.3°F4.6°C 30.6°F-0.8°C 68% 2.0 mph W3.2 kmh W 6.9 mph11.1 kmh 29.59 in1002.0 mb 0.00 in0.0 mm 0.00 in0.0 mm 0.27 in6.9 mm
07:23 PM 40.1°F4.5°C 30.4°F-0.9°C 68% 2.0 mph W3.2 kmh W 6.9 mph11.1 kmh 29.59 in1002.0 mb 0.00 in0.0 mm 0.00 in0.0 mm 0.27 in6.9 mm
07:33 PM 39.7°F4.3°C 30.4°F-0.9°C 69% 2.0 mph SW3.2 kmh SW 10.1 mph16.3 kmh 29.59 in1002.0 mb 0.00 in0.0 mm 0.00 in0.0 mm 0.27 in6.9 mm
07:43 PM 39.9°F4.4°C 30.6°F-0.8°C 69% 2.0 mph SW3.2 kmh SW 8.1 mph13.0 kmh 29.59 in1002.0 mb 0.00 in0.0 mm 0.00 in0.0 mm 0.27 in6.9 mm
07:53 PM 39.7°F4.3°C 30.4°F-0.9°C 69% 0.9 mph SW1.4 kmh SW 6.0 mph9.7 kmh 29.60 in1002.4 mb 0.00 in0.0 mm 0.00 in0.0 mm 0.27 in6.9 mm
08:03 PM 39.6°F4.2°C 29.5°F-1.4°C 67% 2.0 mph NW3.2 kmh NW 12.1 mph19.5 kmh 29.61 in1002.7 mb 0.00 in0.0 mm 0.00 in0.0 mm 0.27 in6.9 mm
08:13 PM 39.7°F4.3°C 28.9°F-1.7°C 65% 2.9 mph S4.7 kmh S 11.0 mph17.7 kmh 29.61 in1002.7 mb 0.00 in0.0 mm 0.00 in0.0 mm 0.27 in6.9 mm
08:23 PM 39.7°F4.3°C 28.6°F-1.9°C 64% 2.0 mph W3.2 kmh W 13.0 mph20.9 kmh 29.60 in1002.4 mb 0.00 in0.0 mm 0.00 in0.0 mm 0.27 in6.9 mm
08:33 PM 39.7°F4.3°C 28.2°F-2.1°C 63% 2.9 mph NW4.7 kmh NW 13.0 mph20.9 kmh 29.61 in1002.7 mb 0.00 in0.0 mm 0.00 in0.0 mm 0.27 in6.9 mm
08:43 PM 39.7°F4.3°C 28.2°F-2.1°C 63% 2.9 mph W4.7 kmh W 11.0 mph17.7 kmh 29.62 in1003.0 mb 0.00 in0.0 mm 0.00 in0.0 mm 0.27 in6.9 mm
08:53 PM 39.6°F4.2°C 28.0°F-2.2°C 63% 2.0 mph SW3.2 kmh SW 10.1 mph16.3 kmh 29.62 in1003.0 mb 0.00 in0.0 mm 0.00 in0.0 mm 0.27 in6.9 mm
09:03 PM 39.6°F4.2°C 28.0°F-2.2°C 63% 2.0 mph WNW3.2 kmh WNW 6.9 mph11.1 kmh 29.63 in1003.4 mb 0.00 in0.0 mm 0.00 in0.0 mm 0.27 in6.9 mm
09:13 PM 39.4°F4.1°C 27.9°F-2.3°C 63% 2.0 mph WSW3.2 kmh WSW 10.1 mph16.3 kmh 29.63 in1003.4 mb 0.00 in0.0 mm 0.00 in0.0 mm 0.27 in6.9 mm
09:23 PM 39.2°F4.0°C 27.7°F-2.4°C 63% 2.0 mph NNE3.2 kmh NNE 6.9 mph11.1 kmh 29.64 in1003.7 mb 0.00 in0.0 mm 0.00 in0.0 mm 0.27 in6.9 mm
09:33 PM 39.0°F3.9°C 27.9°F-2.3°C 64% 0.9 mph SW1.4 kmh SW 8.1 mph13.0 kmh 29.65 in1004.1 mb 0.00 in0.0 mm 0.00 in0.0 mm 0.27 in6.9 mm
09:43 PM 39.0°F3.9°C 27.9°F-2.3°C 64% 2.0 mph W3.2 kmh W 8.1 mph13.0 kmh 29.65 in1004.1 mb 0.00 in0.0 mm 0.00 in0.0 mm 0.27 in6.9 mm
09:53 PM 38.8°F3.8°C 27.7°F-2.4°C 64% 0.9 mph SW1.4 kmh SW 11.0 mph17.7 kmh 29.65 in1004.1 mb 0.00 in0.0 mm 0.00 in0.0 mm 0.27 in6.9 mm
10:03 PM 39.0°F3.9°C 27.9°F-2.3°C 64% 0.9 mph W1.4 kmh W 6.0 mph9.7 kmh 29.65 in1004.1 mb 0.00 in0.0 mm 0.00 in0.0 mm 0.27 in6.9 mm
10:13 PM 38.8°F3.8°C 28.0°F-2.2°C 65% 0.9 mph WNW1.4 kmh WNW 6.0 mph9.7 kmh 29.66 in1004.4 mb 0.00 in0.0 mm 0.00 in0.0 mm 0.27 in6.9 mm
10:23 PM 38.5°F3.6°C 28.0°F-2.2°C 66% Calm Calm 4.0 mph6.4 kmh 29.66 in1004.4 mb 0.00 in0.0 mm 0.00 in0.0 mm 0.27 in6.9 mm
10:33 PM 38.3°F3.5°C 27.9°F-2.3°C 66% Calm Calm 4.0 mph6.4 kmh 29.66 in1004.4 mb 0.00 in0.0 mm 0.00 in0.0 mm 0.27 in6.9 mm
10:43 PM 38.3°F3.5°C 28.2°F-2.1°C 67% 0.9 mph SSE1.4 kmh SSE 2.9 mph4.7 kmh 29.66 in1004.4 mb 0.00 in0.0 mm 0.00 in0.0 mm 0.27 in6.9 mm
10:53 PM 38.3°F3.5°C 27.9°F-2.3°C 66% 0.9 mph SW1.4 kmh SW 5.0 mph8.0 kmh 29.67 in1004.7 mb 0.00 in0.0 mm 0.00 in0.0 mm 0.27 in6.9 mm
11:03 PM 38.1°F3.4°C 28.6°F-1.9°C 68% Calm Calm 2.9 mph4.7 kmh 29.67 in1004.7 mb 0.00 in0.0 mm 0.00 in0.0 mm 0.27 in6.9 mm
11:13 PM 37.9°F3.3°C 28.0°F-2.2°C 67% Calm Calm 4.9 mph7.9 kmh 29.67 in1004.7 mb 0.00 in0.0 mm 0.00 in0.0 mm 0.27 in6.9 mm
11:23 PM 37.9°F3.3°C 28.0°F-2.2°C 67% Calm Calm 2.9 mph4.7 kmh 29.67 in1004.7 mb 0.00 in0.0 mm 0.00 in0.0 mm 0.27 in6.9 mm
11:33 PM 37.9°F3.3°C 28.4°F-2.0°C 68% 0.9 mph ESE1.4 kmh ESE 4.9 mph7.9 kmh 29.68 in1005.1 mb 0.00 in0.0 mm 0.00 in0.0 mm 0.27 in6.9 mm
11:43 PM 37.9°F3.3°C 28.4°F-2.0°C 68% 0.9 mph W1.4 kmh W 8.1 mph13.0 kmh 29.68 in1005.1 mb 0.00 in0.0 mm 0.00 in0.0 mm 0.27 in6.9 mm
11:53 PM 37.8°F3.2°C 28.2°F-2.1°C 68% 0.9 mph SSW1.4 kmh SSW 8.1 mph13.0 kmh 29.68 in1005.1 mb 0.00 in0.0 mm 0.00 in0.0 mm 0.27 in6.9 mm